Granite Shoals, Texas
Current Conditions -  °F | °C
As of 3:15 PM on Saturday 20 Dec 2014 (Local Time) from KDZB Reporting Station
Overcast Overcast  
Wind Chill: 52°   Ceiling: 2100
Heat Index: 52°   Visibility: 10mi
Dew Point: 41°   Wind: 3mph
Humidity: 67%   Direction: 70°ENE
Pressure: 30.15"   Gusts: NA
Location:  30.5925°N, 98.2219°W
Report Text: KDZB 202115Z AUTO 07003KT 10SM OVC021 11/05 A3015 RMK AO2 T01110052
Loading
Personal Weather Stations






























Interactive Weather Map New forecast layout! Learn more

10-Day Weather Forecast

Advertisements
Track Severe Weather on mobile